createdAt,value
2024-04-16T00:01:35.781Z,45.06
2024-04-16T00:04:02.629Z,45.23
2024-04-16T00:06:29.407Z,44.97
2024-04-16T00:08:56.188Z,45.07
2024-04-16T00:11:23.100Z,44.92
2024-04-16T00:13:49.863Z,44.56
2024-04-16T00:16:16.721Z,45.08
2024-04-16T00:18:43.493Z,45.12
2024-04-16T00:21:10.212Z,45.04
2024-04-16T00:23:36.967Z,45.05
2024-04-16T00:26:03.866Z,45.12
2024-04-16T00:28:30.931Z,45.20
2024-04-16T00:30:57.821Z,44.95
2024-04-16T00:33:24.533Z,44.99
2024-04-16T00:35:51.367Z,44.86
2024-04-16T00:38:18.124Z,44.82
2024-04-16T00:40:44.951Z,44.59
2024-04-16T00:43:19.087Z,44.67
2024-04-16T00:45:56.229Z,44.51
2024-04-16T00:48:25.815Z,44.49
2024-04-16T00:50:55.239Z,44.44
2024-04-16T00:53:23.676Z,44.21
2024-04-16T00:55:51.833Z,44.32
2024-04-16T00:58:20.530Z,44.34
2024-04-16T01:00:47.564Z,44.22
2024-04-16T01:03:14.645Z,44.29
2024-04-16T01:05:42.824Z,44.45
2024-04-16T01:08:10.329Z,44.32
2024-04-16T01:10:41.167Z,43.94
2024-04-16T01:13:11.147Z,44.28
2024-04-16T01:15:38.340Z,44.49
2024-04-16T01:18:07.609Z,44.32
2024-04-16T01:20:37.688Z,44.20
2024-04-16T01:23:04.598Z,44.33
2024-04-16T01:25:37.077Z,44.34
2024-04-16T01:28:04.212Z,44.20
2024-04-16T01:30:31.184Z,44.25
2024-04-16T01:32:57.916Z,44.11
2024-04-16T01:35:24.677Z,43.70
2024-04-16T01:37:51.423Z,43.95
2024-04-16T01:40:18.327Z,43.88
2024-04-16T01:42:45.031Z,43.88
2024-04-16T01:45:11.727Z,43.88
2024-04-16T01:47:38.630Z,43.75
2024-04-16T01:50:05.946Z,43.75
2024-04-16T01:52:32.754Z,44.03
2024-04-16T01:54:59.562Z,43.82
2024-04-16T01:57:26.301Z,43.62
2024-04-16T01:59:53.010Z,43.64
2024-04-16T02:02:19.677Z,43.93
2024-04-16T02:04:46.502Z,43.88
2024-04-16T02:07:13.311Z,43.74
2024-04-16T02:09:40.102Z,43.55
2024-04-16T02:12:07.110Z,43.63
2024-04-16T02:14:33.843Z,43.47
2024-04-16T02:17:00.649Z,43.68
2024-04-16T02:19:27.370Z,43.61
2024-04-16T02:21:54.087Z,44.00
2024-04-16T02:24:20.830Z,43.20
2024-04-16T02:26:47.537Z,43.74
2024-04-16T02:29:14.260Z,43.74
2024-04-16T02:31:40.982Z,43.58
2024-04-16T02:34:07.763Z,43.78
2024-04-16T02:36:36.832Z,43.67
2024-04-16T02:39:03.642Z,43.39
2024-04-16T02:41:30.556Z,43.69
2024-04-16T02:43:57.667Z,43.38
2024-04-16T02:46:24.371Z,43.60
2024-04-16T02:48:51.117Z,43.30
2024-04-16T02:51:18.577Z,43.53
2024-04-16T02:53:45.300Z,43.18
2024-04-16T02:56:12.015Z,42.96
2024-04-16T02:58:38.717Z,42.89
2024-04-16T03:01:06.600Z,43.37
2024-04-16T03:03:35.569Z,43.18
2024-04-16T03:06:02.382Z,42.71
2024-04-16T03:08:29.597Z,43.08
2024-04-16T03:11:03.591Z,42.91
2024-04-16T03:13:30.479Z,42.63
2024-04-16T03:15:57.237Z,42.60
2024-04-16T03:18:23.923Z,42.78
2024-04-16T03:21:00.131Z,42.76
2024-04-16T03:23:27.066Z,42.57
2024-04-16T03:25:53.787Z,42.88
2024-04-16T03:28:20.574Z,42.91
2024-04-16T03:30:47.362Z,42.81
2024-04-16T03:33:14.093Z,42.56
2024-04-16T03:35:41.111Z,42.82
2024-04-16T03:38:07.779Z,43.02
2024-04-16T03:40:34.575Z,43.07
2024-04-16T03:43:01.408Z,42.96
2024-04-16T03:45:28.167Z,42.58
2024-04-16T03:47:54.982Z,42.71
2024-04-16T03:50:21.740Z,42.87
2024-04-16T03:52:48.449Z,42.90
2024-04-16T03:55:15.327Z,42.75
2024-04-16T03:57:42.034Z,42.89
2024-04-16T04:00:27.833Z,43.17
2024-04-16T04:02:54.998Z,43.04
2024-04-16T04:05:21.782Z,42.93
2024-04-16T04:07:49.239Z,43.23
2024-04-16T04:10:18.316Z,43.49
2024-04-16T04:12:45.090Z,43.61
2024-04-16T04:15:11.783Z,43.79
2024-04-16T04:17:38.622Z,43.70
2024-04-16T04:20:05.806Z,43.89
2024-04-16T04:22:32.715Z,44.00
2024-04-16T04:24:59.503Z,43.95
2024-04-16T04:27:26.196Z,44.23
2024-04-16T04:29:52.967Z,44.25
2024-04-16T04:32:19.792Z,44.38
2024-04-16T04:34:46.857Z,44.45
2024-04-16T04:37:13.716Z,44.69
2024-04-16T04:39:40.518Z,44.62
2024-04-16T04:42:07.239Z,44.69
2024-04-16T04:44:34.850Z,44.75
2024-04-16T04:47:01.577Z,44.50
2024-04-16T04:49:28.370Z,44.75
2024-04-16T04:51:55.121Z,44.88
2024-04-16T04:54:21.847Z,44.76
2024-04-16T04:56:50.296Z,44.77
2024-04-16T04:59:17.337Z,44.89
2024-04-16T05:01:44.134Z,44.76
2024-04-16T05:04:11.000Z,45.03
2024-04-16T05:06:41.193Z,44.55
2024-04-16T05:09:07.917Z,44.77
2024-04-16T05:11:35.127Z,44.93
2024-04-16T05:14:01.943Z,44.83
2024-04-16T05:16:28.683Z,45.14
2024-04-16T05:18:55.399Z,45.01
2024-04-16T05:21:22.124Z,44.63
2024-04-16T05:23:50.487Z,44.08
2024-04-16T05:26:18.037Z,44.05
2024-04-16T05:28:44.847Z,43.86
2024-04-16T05:31:11.578Z,43.62
2024-04-16T05:33:38.279Z,43.00
2024-04-16T05:36:06.587Z,42.52
2024-04-16T05:38:34.448Z,42.29
2024-04-16T05:41:01.326Z,42.24
2024-04-16T05:43:28.132Z,41.85
2024-04-16T05:45:54.840Z,41.09
2024-04-16T05:48:21.718Z,40.76
2024-04-16T05:50:48.602Z,40.57
2024-04-16T05:53:16.176Z,40.54
2024-04-16T05:55:42.988Z,40.20
2024-04-16T05:58:11.732Z,39.95
2024-04-16T06:00:38.963Z,39.70
2024-04-16T06:03:05.975Z,38.80
2024-04-16T06:05:32.717Z,38.94
2024-04-16T06:07:59.649Z,39.04
2024-04-16T06:10:26.408Z,38.58
2024-04-16T06:12:53.103Z,38.27
2024-04-16T06:15:19.843Z,38.18
2024-04-16T06:17:46.618Z,38.00
2024-04-16T06:20:13.458Z,38.11
2024-04-16T06:22:40.978Z,37.62
2024-04-16T06:25:08.918Z,37.88
2024-04-16T06:27:35.722Z,37.68
2024-04-16T06:30:02.499Z,37.42
2024-04-16T06:32:29.326Z,37.88
2024-04-16T06:34:56.077Z,38.08
2024-04-16T06:37:22.941Z,37.51
2024-04-16T06:39:49.713Z,37.52
2024-04-16T06:42:17.022Z,37.16
2024-04-16T06:44:43.935Z,37.15
2024-04-16T06:47:10.762Z,37.51
2024-04-16T06:49:37.830Z,37.10
2024-04-16T06:52:04.939Z,37.15
2024-04-16T06:54:31.636Z,37.06
2024-04-16T06:56:58.311Z,36.90
2024-04-16T06:59:25.016Z,36.92
2024-04-16T07:01:51.783Z,37.12
2024-04-16T07:04:18.524Z,36.67
2024-04-16T07:06:45.261Z,36.96
2024-04-16T07:09:11.972Z,37.13
2024-04-16T07:11:39.535Z,37.16
2024-04-16T07:14:06.284Z,36.79
2024-04-16T07:16:33.085Z,36.99
2024-04-16T07:18:59.823Z,36.40
2024-04-16T07:21:26.536Z,36.80
2024-04-16T07:23:54.754Z,36.97
2024-04-16T07:26:21.601Z,36.56
2024-04-16T07:28:48.481Z,36.12
2024-04-16T07:31:18.320Z,36.60
2024-04-16T07:33:46.366Z,36.37
2024-04-16T07:36:13.264Z,36.39
2024-04-16T07:38:40.042Z,36.22
2024-04-16T07:41:07.066Z,36.18
2024-04-16T07:43:36.644Z,36.06
2024-04-16T07:46:03.460Z,35.84
2024-04-16T07:48:30.234Z,36.25
2024-04-16T07:50:57.023Z,35.96
2024-04-16T07:53:23.754Z,36.07
2024-04-16T07:55:50.537Z,36.14
2024-04-16T07:58:17.312Z,36.13
2024-04-16T08:00:44.162Z,36.06
2024-04-16T08:03:11.040Z,35.95
2024-04-16T08:05:38.243Z,35.76
2024-04-16T08:08:09.758Z,35.41
2024-04-16T08:10:39.466Z,35.35
2024-04-16T08:13:06.448Z,34.99
2024-04-16T08:15:33.257Z,35.24
2024-04-16T08:18:00.171Z,34.87
2024-04-16T08:20:27.020Z,34.53
2024-04-16T08:22:54.640Z,34.36
2024-04-16T08:25:21.415Z,34.67
2024-04-16T08:27:48.175Z,34.25
2024-04-16T08:30:14.925Z,34.51
2024-04-16T08:32:41.674Z,34.13
2024-04-16T08:35:12.808Z,33.96
2024-04-16T08:37:39.727Z,34.00
2024-04-16T08:40:09.717Z,33.60
2024-04-16T08:42:37.267Z,33.69
2024-04-16T08:45:05.434Z,33.29
2024-04-16T08:47:34.490Z,33.22
2024-04-16T08:50:03.097Z,33.42
2024-04-16T08:52:31.638Z,32.67
2024-04-16T08:54:59.350Z,32.85
2024-04-16T08:57:29.539Z,32.98
2024-04-16T08:59:56.235Z,32.78
2024-04-16T09:02:25.077Z,32.90
2024-04-16T09:04:53.003Z,32.63
2024-04-16T09:07:20.930Z,32.54
2024-04-16T09:09:47.752Z,31.86
2024-04-16T09:12:14.603Z,31.53
2024-04-16T09:14:41.311Z,31.27
2024-04-16T09:17:14.986Z,31.02
2024-04-16T09:19:45.031Z,30.98
2024-04-16T09:22:11.959Z,30.21
2024-04-16T09:24:38.739Z,30.36
2024-04-16T09:27:11.444Z,30.36
2024-04-16T09:29:38.152Z,30.21
2024-04-16T09:32:05.558Z,30.72
2024-04-16T09:34:33.255Z,30.37
2024-04-16T09:37:01.010Z,30.64
2024-04-16T09:39:29.249Z,30.58
2024-04-16T09:41:56.594Z,31.27
2024-04-16T09:44:26.033Z,30.85
2024-04-16T09:46:55.560Z,30.51
2024-04-16T09:49:28.123Z,30.87
2024-04-16T09:52:03.214Z,30.38
2024-04-16T09:54:31.207Z,30.29
2024-04-16T09:56:58.863Z,29.97
2024-04-16T09:59:26.782Z,29.80
2024-04-16T10:01:55.238Z,30.06
2024-04-16T10:04:23.324Z,30.22
2024-04-16T10:06:50.847Z,30.05
2024-04-16T10:09:18.842Z,30.23
2024-04-16T10:11:49.048Z,29.50
2024-04-16T10:14:16.647Z,29.79
2024-04-16T10:16:43.468Z,29.36
2024-04-16T10:19:10.253Z,29.00
2024-04-16T10:21:40.876Z,29.88
2024-04-16T10:24:09.669Z,29.97
2024-04-16T10:26:38.360Z,30.51
2024-04-16T10:29:19.641Z,30.06
2024-04-16T10:31:53.902Z,29.41
2024-04-16T10:34:27.619Z,28.96
2024-04-16T10:36:57.541Z,29.32
2024-04-16T10:39:33.573Z,28.90
2024-04-16T10:42:05.524Z,28.84
2024-04-16T10:44:34.598Z,28.74
2024-04-16T10:47:02.384Z,27.95
2024-04-16T10:49:29.776Z,28.11
2024-04-16T10:51:56.781Z,28.22
2024-04-16T10:54:23.609Z,28.27
2024-04-16T10:56:52.275Z,27.78
2024-04-16T10:59:20.084Z,28.27
2024-04-16T11:01:47.991Z,27.84
2024-04-16T11:04:16.377Z,28.56
2024-04-16T11:06:43.287Z,28.59
2024-04-16T11:09:11.979Z,28.17
2024-04-16T11:11:39.775Z,28.32
2024-04-16T11:14:08.548Z,28.08
2024-04-16T11:16:35.569Z,28.37
2024-04-16T11:19:03.922Z,27.89
2024-04-16T11:21:33.276Z,28.13
2024-04-16T11:24:00.401Z,28.21
2024-04-16T11:26:28.230Z,28.59
2024-04-16T11:28:54.825Z,28.32
2024-04-16T11:31:21.679Z,28.36
2024-04-16T11:33:49.321Z,27.68
2024-04-16T11:36:18.327Z,28.87
2024-04-16T11:38:45.379Z,28.66
2024-04-16T11:41:13.991Z,28.74
2024-04-16T11:43:43.445Z,28.31
2024-04-16T11:46:16.322Z,28.66
2024-04-16T11:48:44.225Z,28.78
2024-04-16T11:51:12.390Z,28.81
2024-04-16T11:53:39.690Z,28.23
2024-04-16T11:56:12.848Z,28.20
2024-04-16T11:58:41.251Z,28.52
2024-04-16T12:01:08.193Z,29.05
2024-04-16T12:03:35.118Z,28.51
2024-04-16T12:06:01.987Z,28.92
2024-04-16T12:08:28.763Z,28.67
2024-04-16T12:10:55.600Z,28.16
2024-04-16T12:13:22.374Z,27.49
2024-04-16T12:15:49.244Z,27.80
2024-04-16T12:18:16.002Z,27.77
2024-04-16T12:20:42.784Z,27.86
2024-04-16T12:23:09.478Z,28.36
2024-04-16T12:25:36.242Z,28.53
2024-04-16T12:28:02.976Z,28.65
2024-04-16T12:30:32.515Z,28.75
2024-04-16T12:33:06.081Z,28.75
2024-04-16T12:35:41.227Z,28.38
2024-04-16T12:38:07.935Z,28.50
2024-04-16T12:40:34.678Z,28.40
2024-04-16T12:43:01.379Z,28.89
2024-04-16T12:45:28.111Z,28.65
2024-04-16T12:47:54.981Z,28.79
2024-04-16T12:50:21.726Z,28.15
2024-04-16T12:52:48.447Z,28.45
2024-04-16T12:55:15.193Z,28.45
2024-04-16T12:57:41.936Z,28.62
2024-04-16T13:00:09.740Z,28.03
2024-04-16T13:02:36.461Z,28.12
2024-04-16T13:05:03.260Z,28.04
2024-04-16T13:07:30.092Z,27.87
2024-04-16T13:09:57.110Z,27.68
2024-04-16T13:12:23.856Z,27.84
2024-04-16T13:14:50.566Z,27.78
2024-04-16T13:17:17.274Z,27.75
2024-04-16T13:19:53.386Z,27.89
2024-04-16T13:22:21.250Z,28.19
2024-04-16T13:24:48.069Z,28.06
2024-04-16T13:27:14.801Z,27.85
2024-04-16T13:29:41.661Z,28.43
2024-04-16T13:32:08.490Z,28.37
2024-04-16T13:34:35.516Z,28.50
2024-04-16T13:37:02.372Z,28.37
2024-04-16T13:39:29.521Z,29.33
2024-04-16T13:41:56.722Z,28.84
2024-04-16T13:44:23.421Z,29.15
2024-04-16T13:46:50.206Z,29.13
2024-04-16T13:49:16.993Z,29.15
2024-04-16T13:51:43.777Z,28.65
2024-04-16T13:54:10.497Z,29.18
2024-04-16T13:56:37.170Z,29.04
2024-04-16T13:59:04.107Z,29.12
2024-04-16T14:01:30.987Z,28.62
2024-04-16T14:03:57.749Z,28.53
2024-04-16T14:06:24.543Z,28.38
2024-04-16T14:08:51.339Z,28.60
2024-04-16T14:11:18.095Z,28.06
2024-04-16T14:13:44.952Z,28.09
2024-04-16T14:16:11.758Z,28.14
2024-04-16T14:18:38.457Z,27.78
2024-04-16T14:21:05.339Z,27.85
2024-04-16T14:23:33.768Z,27.98
2024-04-16T14:26:00.473Z,27.93
2024-04-16T14:28:32.108Z,28.22
2024-04-16T14:30:58.975Z,26.25
2024-04-16T14:33:26.351Z,26.31
2024-04-16T14:35:53.211Z,26.92
2024-04-16T14:38:19.966Z,26.94
2024-04-16T14:40:46.878Z,27.17
2024-04-16T14:43:13.678Z,27.13
2024-04-16T14:45:40.363Z,27.71
2024-04-16T14:48:07.536Z,27.39
2024-04-16T14:50:43.924Z,27.76
2024-04-16T14:53:14.242Z,28.07
2024-04-16T14:55:44.595Z,28.03
2024-04-16T14:58:11.440Z,28.08
2024-04-16T15:00:41.947Z,28.32
2024-04-16T15:03:08.888Z,28.54
2024-04-16T15:05:35.696Z,28.60
2024-04-16T15:08:02.391Z,28.41
2024-04-16T15:10:30.439Z,28.80
2024-04-16T15:12:57.443Z,28.38
2024-04-16T15:15:24.157Z,29.05
2024-04-16T15:17:51.011Z,29.04
2024-04-16T15:20:17.829Z,29.09
2024-04-16T15:22:44.599Z,28.79
2024-04-16T15:25:11.349Z,29.43
2024-04-16T15:27:38.119Z,29.76
2024-04-16T15:30:05.401Z,29.11
2024-04-16T15:32:32.154Z,29.29
2024-04-16T15:34:58.888Z,29.32
2024-04-16T15:37:25.683Z,29.01
2024-04-16T15:39:52.867Z,29.32
2024-04-16T15:42:19.574Z,28.86
2024-04-16T15:44:46.400Z,28.91
2024-04-16T15:47:15.659Z,29.01
2024-04-16T15:49:43.884Z,29.19
2024-04-16T15:52:10.715Z,29.30
2024-04-16T15:54:37.632Z,29.23
2024-04-16T15:57:04.434Z,29.50
2024-04-16T15:59:31.123Z,29.66
2024-04-16T16:01:57.897Z,29.56
2024-04-16T16:04:24.649Z,29.64
2024-04-16T16:06:51.381Z,29.39
2024-04-16T16:09:18.760Z,29.67
2024-04-16T16:11:45.532Z,29.24
2024-04-16T16:14:12.402Z,29.71
2024-04-16T16:16:39.156Z,29.19
2024-04-16T16:19:05.860Z,29.66
2024-04-16T16:21:32.578Z,29.33
2024-04-16T16:23:59.355Z,29.55
2024-04-16T16:26:26.076Z,29.68
2024-04-16T16:28:53.003Z,29.62
2024-04-16T16:31:20.010Z,29.30
2024-04-16T16:33:47.452Z,29.43
2024-04-16T16:36:14.404Z,29.52
2024-04-16T16:38:41.109Z,29.57
2024-04-16T16:41:07.807Z,29.64
2024-04-16T16:43:34.516Z,29.42
2024-04-16T16:46:04.627Z,29.80
2024-04-16T16:48:31.516Z,29.91
2024-04-16T16:50:58.273Z,29.77
2024-04-16T16:53:25.021Z,29.54
2024-04-16T16:55:53.526Z,29.64
2024-04-16T16:58:21.110Z,29.49
2024-04-16T17:00:49.761Z,29.50
2024-04-16T17:03:18.554Z,29.61
2024-04-16T17:05:45.644Z,29.54
2024-04-16T17:08:12.359Z,30.00
2024-04-16T17:10:40.047Z,29.77
2024-04-16T17:13:06.782Z,29.83
2024-04-16T17:15:33.714Z,30.01
2024-04-16T17:18:00.717Z,29.37
2024-04-16T17:20:28.647Z,29.75
2024-04-16T17:22:55.939Z,29.59
2024-04-16T17:25:22.685Z,29.78
2024-04-16T17:27:49.379Z,29.72
2024-04-16T17:30:16.181Z,29.72
2024-04-16T17:32:43.155Z,30.16
2024-04-16T17:35:09.882Z,30.10
2024-04-16T17:37:36.664Z,29.84
2024-04-16T17:40:03.589Z,29.89
2024-04-16T17:42:31.405Z,29.88
2024-04-16T17:44:57.964Z,30.26
2024-04-16T17:47:24.718Z,30.15
2024-04-16T17:49:51.814Z,30.09
2024-04-16T17:52:18.730Z,30.20
2024-04-16T17:54:53.737Z,29.98
2024-04-16T17:57:20.820Z,30.30
2024-04-16T17:59:48.311Z,30.50
2024-04-16T18:02:15.096Z,30.43
2024-04-16T18:04:41.895Z,30.09
2024-04-16T18:07:08.670Z,30.48
2024-04-16T18:09:35.398Z,30.44
2024-04-16T18:12:02.133Z,30.58
2024-04-16T18:14:28.849Z,30.51
2024-04-16T18:16:55.666Z,30.97
2024-04-16T18:19:22.434Z,30.93
2024-04-16T18:21:49.168Z,30.81
2024-04-16T18:24:16.992Z,31.08
2024-04-16T18:26:43.788Z,31.11
2024-04-16T18:29:10.506Z,30.50
2024-04-16T18:31:37.850Z,30.87
2024-04-16T18:34:04.577Z,31.25
2024-04-16T18:36:31.253Z,30.96
2024-04-16T18:38:58.091Z,31.15
2024-04-16T18:41:25.267Z,31.41
2024-04-16T18:43:51.980Z,31.35
2024-04-16T18:46:18.677Z,31.64
2024-04-16T18:48:45.494Z,31.45
2024-04-16T18:51:12.334Z,31.15
2024-04-16T18:53:39.024Z,31.36
2024-04-16T18:56:11.509Z,31.04
2024-04-16T18:58:38.293Z,31.28
2024-04-16T19:01:05.270Z,31.63
2024-04-16T19:03:32.007Z,31.33
2024-04-16T19:05:58.784Z,31.22
2024-04-16T19:08:25.525Z,31.49
2024-04-16T19:10:52.260Z,31.48
2024-04-16T19:13:18.983Z,31.58
2024-04-16T19:15:56.017Z,31.29
2024-04-16T19:18:23.158Z,31.35
2024-04-16T19:20:49.901Z,31.40
2024-04-16T19:23:16.623Z,31.49
2024-04-16T19:25:43.454Z,31.11
2024-04-16T19:28:10.170Z,31.66
2024-04-16T19:30:36.911Z,31.54
2024-04-16T19:33:03.725Z,31.64
2024-04-16T19:35:30.481Z,31.73
2024-04-16T19:37:57.197Z,31.62
2024-04-16T19:40:23.977Z,32.25
2024-04-16T19:42:50.766Z,32.10
2024-04-16T19:45:17.496Z,32.01
2024-04-16T19:47:44.392Z,31.95
2024-04-16T19:50:11.211Z,32.06
2024-04-16T19:52:38.061Z,32.11
2024-04-16T19:55:06.485Z,31.90
2024-04-16T19:57:33.596Z,32.11
2024-04-16T20:00:01.962Z,32.13
2024-04-16T20:02:28.691Z,32.32
2024-04-16T20:04:55.446Z,32.05
2024-04-16T20:07:22.152Z,31.98
2024-04-16T20:09:51.149Z,32.52
2024-04-16T20:12:17.889Z,32.23
2024-04-16T20:14:46.120Z,32.51
2024-04-16T20:17:14.320Z,32.68
2024-04-16T20:19:41.090Z,32.42
2024-04-16T20:22:07.851Z,32.19
2024-04-16T20:24:34.688Z,32.44
2024-04-16T20:27:02.272Z,32.33
2024-04-16T20:29:29.803Z,32.73
2024-04-16T20:31:56.637Z,32.26
2024-04-16T20:34:25.729Z,32.71
2024-04-16T20:36:52.676Z,32.65
2024-04-16T20:39:21.496Z,32.62
2024-04-16T20:41:48.256Z,32.47
2024-04-16T20:44:15.071Z,32.64
2024-04-16T20:46:41.809Z,32.47
2024-04-16T20:49:08.569Z,32.38
2024-04-16T20:51:35.316Z,32.93
2024-04-16T20:54:02.095Z,32.23
2024-04-16T20:56:30.413Z,32.54
2024-04-16T20:58:57.284Z,32.93
2024-04-16T21:01:24.093Z,33.37
2024-04-16T21:03:50.861Z,32.82
2024-04-16T21:06:18.127Z,33.11
2024-04-16T21:08:44.841Z,33.29
2024-04-16T21:11:11.720Z,33.40
2024-04-16T21:13:38.541Z,32.83
2024-04-16T21:16:05.841Z,33.41
2024-04-16T21:18:32.574Z,32.60
2024-04-16T21:20:59.277Z,33.27
2024-04-16T21:23:25.960Z,33.05
2024-04-16T21:25:52.858Z,32.96
2024-04-16T21:28:19.718Z,32.81
2024-04-16T21:30:46.515Z,32.85
2024-04-16T21:33:13.313Z,33.58
2024-04-16T21:35:41.294Z,33.13
2024-04-16T21:38:08.112Z,32.76
2024-04-16T21:40:34.931Z,33.11
2024-04-16T21:43:02.670Z,33.33
2024-04-16T21:45:29.658Z,33.03
2024-04-16T21:47:56.524Z,33.36
2024-04-16T21:50:24.298Z,33.47
2024-04-16T21:52:51.128Z,33.13
2024-04-16T21:55:17.897Z,33.69
2024-04-16T21:57:44.659Z,33.67
2024-04-16T22:00:12.817Z,33.87
2024-04-16T22:02:39.755Z,33.88
2024-04-16T22:05:07.008Z,33.44
2024-04-16T22:07:33.797Z,33.61
2024-04-16T22:10:00.744Z,33.87
2024-04-16T22:12:27.417Z,33.93
2024-04-16T22:14:54.168Z,33.93
2024-04-16T22:17:20.878Z,34.21
2024-04-16T22:19:48.144Z,34.15
2024-04-16T22:22:14.941Z,34.24
2024-04-16T22:24:41.750Z,34.03
2024-04-16T22:27:08.510Z,34.21
2024-04-16T22:29:35.198Z,33.98
2024-04-16T22:32:01.899Z,34.02
2024-04-16T22:34:28.632Z,34.36
2024-04-16T22:36:55.318Z,34.21
2024-04-16T22:39:22.112Z,33.95
2024-04-16T22:41:48.909Z,34.21
2024-04-16T22:44:15.614Z,34.63
2024-04-16T22:46:42.290Z,34.57
2024-04-16T22:49:09.078Z,34.31
2024-04-16T22:51:35.786Z,34.42
2024-04-16T22:54:02.465Z,34.96
2024-04-16T22:56:29.265Z,34.66
2024-04-16T22:58:56.001Z,34.97
2024-04-16T23:01:22.724Z,34.49
2024-04-16T23:03:49.573Z,35.11
2024-04-16T23:06:16.373Z,35.28
2024-04-16T23:08:43.095Z,35.32
2024-04-16T23:11:09.979Z,35.55
2024-04-16T23:13:37.293Z,35.44
2024-04-16T23:16:04.117Z,35.84
2024-04-16T23:18:31.162Z,36.13
2024-04-16T23:20:57.932Z,35.71
2024-04-16T23:23:24.664Z,35.99
2024-04-16T23:25:51.512Z,36.63
2024-04-16T23:28:18.336Z,36.56
2024-04-16T23:30:45.035Z,36.50
2024-04-16T23:33:11.826Z,36.59
2024-04-16T23:35:38.649Z,36.57
2024-04-16T23:38:05.400Z,36.93
2024-04-16T23:40:32.292Z,37.42
2024-04-16T23:42:59.073Z,37.78
2024-04-16T23:45:25.743Z,37.65
2024-04-16T23:47:52.598Z,37.56
2024-04-16T23:50:19.308Z,37.79
2024-04-16T23:52:46.859Z,37.43
2024-04-16T23:55:13.658Z,38.05
2024-04-16T23:57:40.351Z,38.15
